createdAt,value
2023-09-18T00:02:49.206Z,100646.34
2023-09-18T00:06:26.509Z,100651.58
2023-09-18T00:10:03.730Z,100651.43
2023-09-18T00:13:41.629Z,100645.89
2023-09-18T00:17:20.434Z,100648.48
2023-09-18T00:20:56.903Z,100644.02
2023-09-18T00:24:35.154Z,100635.54
2023-09-18T00:28:12.347Z,100632.42
2023-09-18T00:31:50.155Z,100633.58
2023-09-18T00:35:28.009Z,100635.48
2023-09-18T00:39:05.962Z,100630.48
2023-09-18T00:42:43.432Z,100626.15
2023-09-18T00:46:21.404Z,100631.40
2023-09-18T00:50:02.599Z,100631.47
2023-09-18T00:53:38.489Z,100625.90
2023-09-18T00:57:14.808Z,100630.11
2023-09-18T01:00:52.658Z,100631.75
2023-09-18T01:04:31.162Z,100624.60
2023-09-18T01:08:07.868Z,100624.02
2023-09-18T01:11:52.148Z,100617.73
2023-09-18T01:15:31.129Z,100616.15
2023-09-18T01:19:00.859Z,100615.60
2023-09-18T01:22:39.113Z,100612.58
2023-09-18T01:26:16.672Z,100610.00
2023-09-18T01:29:54.803Z,100611.36
2023-09-18T01:33:33.394Z,100606.65
2023-09-18T01:37:13.648Z,100606.91
2023-09-18T01:40:48.808Z,100603.64
2023-09-18T01:44:25.957Z,100600.96
2023-09-18T01:48:07.118Z,100595.64
2023-09-18T01:51:40.855Z,100593.60
2023-09-18T01:55:18.731Z,100598.48
2023-09-18T01:58:56.331Z,100606.80
2023-09-18T02:02:34.213Z,100600.02
2023-09-18T02:06:12.031Z,100601.31
2023-09-18T02:09:49.771Z,100605.19
2023-09-18T02:13:27.694Z,100607.81
2023-09-18T02:17:06.563Z,100603.63
2023-09-18T02:20:43.547Z,100602.94
2023-09-18T02:24:20.612Z,100597.39
2023-09-18T02:27:58.452Z,100588.75
2023-09-18T02:31:36.240Z,100585.94
2023-09-18T02:35:14.379Z,100591.80
2023-09-18T02:38:52.084Z,100586.73
2023-09-18T02:42:29.750Z,100581.78
2023-09-18T02:46:07.632Z,100578.86
2023-09-18T02:49:44.985Z,100571.16
2023-09-18T02:53:24.619Z,100572.62
2023-09-18T02:57:00.490Z,100571.34
2023-09-18T03:00:51.670Z,100564.52
2023-09-18T03:04:17.050Z,100554.73
2023-09-18T03:07:53.838Z,100551.11
2023-09-18T03:11:31.618Z,100543.67
2023-09-18T03:15:10.568Z,100537.57
2023-09-18T03:18:47.071Z,100532.44
2023-09-18T03:22:24.720Z,100526.95
2023-09-18T03:26:02.493Z,100529.10
2023-09-18T03:29:40.356Z,100530.11
2023-09-18T03:33:18.081Z,100526.45
2023-09-18T03:36:55.766Z,100526.17
2023-09-18T03:40:33.485Z,100527.30
2023-09-18T03:44:12.335Z,100521.06
2023-09-18T03:47:51.278Z,100520.79
2023-09-18T03:51:26.874Z,100516.52
2023-09-18T03:55:04.993Z,100518.07
2023-09-18T03:58:42.269Z,100515.66
2023-09-18T04:02:20.238Z,100513.70
2023-09-18T04:05:58.013Z,100506.67
2023-09-18T04:09:36.020Z,100496.70
2023-09-18T04:13:13.494Z,100497.48
2023-09-18T04:16:53.668Z,100490.79
2023-09-18T04:20:29.424Z,100490.72
2023-09-18T04:24:07.274Z,100497.23
2023-09-18T04:27:44.501Z,100490.42
2023-09-18T04:31:22.464Z,100493.27
2023-09-18T04:35:00.027Z,100491.85
2023-09-18T04:38:37.940Z,100482.89
2023-09-18T04:42:15.416Z,100473.34
2023-09-18T04:45:53.378Z,100467.56
2023-09-18T04:49:31.016Z,100468.58
2023-09-18T04:53:10.076Z,100468.04
2023-09-18T04:56:46.722Z,100469.17
2023-09-18T05:00:24.631Z,100473.88
2023-09-18T05:04:02.083Z,100474.83
2023-09-18T05:07:40.188Z,100475.97
2023-09-18T05:11:18.251Z,100472.53
2023-09-18T05:14:57.715Z,100468.73
2023-09-18T05:18:33.167Z,100469.27
2023-09-18T05:22:11.516Z,100479.23
2023-09-18T05:25:48.673Z,100469.38
2023-09-18T05:29:26.233Z,100454.98
2023-09-18T05:33:09.510Z,100454.83
2023-09-18T05:36:42.511Z,100463.91
2023-09-18T05:40:19.642Z,100463.61
2023-09-18T05:43:58.090Z,100464.25
2023-09-18T05:47:39.503Z,100459.06
2023-09-18T05:51:12.953Z,100458.09
2023-09-18T05:54:50.832Z,100462.10
2023-09-18T05:58:29.024Z,100457.90
2023-09-18T06:02:06.243Z,100448.34
2023-09-18T06:05:43.917Z,100445.55
2023-09-18T06:09:22.354Z,100445.95
2023-09-18T06:13:05.199Z,100445.15
2023-09-18T06:16:37.946Z,100439.64
2023-09-18T06:20:18.283Z,100439.77
2023-09-18T06:23:52.968Z,100437.23
2023-09-18T06:27:30.576Z,100429.69
2023-09-18T06:31:08.805Z,100429.98
2023-09-18T06:34:48.703Z,100426.46
2023-09-18T06:38:24.550Z,100417.77
2023-09-18T06:42:01.992Z,100411.90
2023-09-18T06:45:40.731Z,100413.51
2023-09-18T06:49:27.832Z,100405.79
2023-09-18T06:53:10.381Z,100399.17
2023-09-18T06:56:37.935Z,100394.89
2023-09-18T07:00:36.796Z,100392.55
2023-09-18T07:04:21.460Z,100384.95
2023-09-18T07:08:28.036Z,100380.83
2023-09-18T07:11:36.728Z,100377.52
2023-09-18T07:15:14.420Z,100378.11
2023-09-18T07:18:52.591Z,100379.34
2023-09-18T07:22:31.123Z,100378.46
2023-09-18T07:26:08.003Z,100371.15
2023-09-18T07:29:45.812Z,100371.98
2023-09-18T07:33:23.823Z,100365.45
2023-09-18T07:37:01.076Z,100354.78
2023-09-18T07:40:38.728Z,100354.38
2023-09-18T07:44:24.388Z,100353.50
2023-09-18T07:47:54.382Z,100353.64
2023-09-18T07:51:32.280Z,100349.88
2023-09-18T07:55:11.041Z,100346.25
2023-09-18T07:58:48.105Z,100345.59
2023-09-18T08:02:26.664Z,100344.02
2023-09-18T08:06:05.645Z,100338.88
2023-09-18T08:09:41.003Z,100331.20
2023-09-18T08:13:19.158Z,100326.58
2023-09-18T08:17:01.225Z,100329.77
2023-09-18T08:20:34.331Z,100324.98
2023-09-18T08:24:11.925Z,100318.10
2023-09-18T08:27:49.780Z,100318.52
2023-09-18T08:31:28.760Z,100317.09
2023-09-18T08:35:06.708Z,100317.49
2023-09-18T08:38:45.037Z,100318.11
2023-09-18T08:42:22.079Z,100313.26
2023-09-18T08:46:02.482Z,100310.35
2023-09-18T08:49:36.966Z,100303.40
2023-09-18T08:53:14.168Z,100305.61
2023-09-18T08:56:53.365Z,100299.86
2023-09-18T09:00:29.899Z,100289.45
2023-09-18T09:04:07.333Z,100287.75
2023-09-18T09:07:45.095Z,100279.73
2023-09-18T09:11:23.859Z,100273.61
2023-09-18T09:15:07.136Z,100269.89
2023-09-18T09:18:49.259Z,100261.61
2023-09-18T09:22:23.280Z,100254.23
2023-09-18T09:25:54.848Z,100252.30
2023-09-18T09:29:32.715Z,100246.80
2023-09-18T09:33:13.575Z,100240.97
2023-09-18T09:36:55.309Z,100235.48
2023-09-18T09:40:26.814Z,100238.73
2023-09-18T09:44:02.717Z,100236.30
2023-09-18T09:47:40.715Z,100235.02
2023-09-18T09:51:22.363Z,100233.02
2023-09-18T09:54:56.886Z,100229.77
2023-09-18T09:58:34.047Z,100225.67
2023-09-18T10:02:15.770Z,100219.07
2023-09-18T10:05:52.932Z,100223.47
2023-09-18T10:09:30.882Z,100218.53
2023-09-18T10:13:11.074Z,100209.66
2023-09-18T10:16:49.961Z,100205.03
2023-09-18T10:20:22.083Z,100205.49
2023-09-18T10:24:09.021Z,100195.79
2023-09-18T10:27:40.374Z,100190.48
2023-09-18T10:31:16.152Z,100187.40
2023-09-18T10:34:52.098Z,100190.27
2023-09-18T10:38:30.362Z,100181.38
2023-09-18T10:42:09.615Z,100175.36
2023-09-18T10:45:46.013Z,100170.80
2023-09-18T10:49:23.376Z,100160.00
2023-09-18T10:53:00.624Z,100153.00
2023-09-18T10:56:39.340Z,100151.58
2023-09-18T11:00:18.034Z,100153.50
2023-09-18T11:04:00.706Z,100144.07
2023-09-18T11:07:31.543Z,100142.95
2023-09-18T11:11:12.933Z,100142.98
2023-09-18T11:14:56.306Z,100144.52
2023-09-18T11:18:25.161Z,100150.06
2023-09-18T11:22:11.687Z,100139.89
2023-09-18T11:25:42.914Z,100145.04
2023-09-18T11:29:23.635Z,100141.64
2023-09-18T11:32:57.100Z,100141.30
2023-09-18T11:36:34.350Z,100140.95
2023-09-18T11:40:42.195Z,100136.50
2023-09-18T11:44:15.040Z,100134.42
2023-09-18T11:47:34.285Z,100123.95
2023-09-18T11:51:12.818Z,100128.04
2023-09-18T11:54:49.993Z,100128.93
2023-09-18T11:58:49.648Z,100126.20
2023-09-18T12:02:07.524Z,100116.73
2023-09-18T12:05:42.770Z,100103.20
2023-09-18T12:09:21.216Z,100094.88
2023-09-18T12:12:59.234Z,100091.14
2023-09-18T12:16:40.516Z,100079.54
2023-09-18T12:20:20.783Z,100072.05
2023-09-18T12:23:52.573Z,100065.25
2023-09-18T12:27:31.605Z,100056.22
2023-09-18T12:31:08.080Z,100053.97
2023-09-18T12:34:45.563Z,100046.25
2023-09-18T12:38:26.676Z,100043.60
2023-09-18T12:42:03.729Z,100048.02
2023-09-18T12:45:38.516Z,100045.21
2023-09-18T12:49:17.807Z,100044.94
2023-09-18T12:52:53.781Z,100041.78
2023-09-18T12:56:31.424Z,100039.55
2023-09-18T13:00:13.684Z,100035.83
2023-09-18T13:03:48.179Z,100035.83
2023-09-18T13:07:26.964Z,100032.37
2023-09-18T13:11:04.441Z,100030.06
2023-09-18T13:15:10.369Z,100028.14
2023-09-18T13:18:25.463Z,100023.54
2023-09-18T13:22:01.962Z,100018.16
2023-09-18T13:25:43.855Z,100020.92
2023-09-18T13:29:17.279Z,100011.15
2023-09-18T13:33:05.434Z,100005.87
2023-09-18T13:36:32.985Z,100001.14
2023-09-18T13:40:11.656Z,99996.88
2023-09-18T13:43:50.235Z,99998.01
2023-09-18T13:47:26.430Z,99991.67
2023-09-18T13:51:05.044Z,99991.39
2023-09-18T13:54:42.647Z,99994.30
2023-09-18T13:58:19.464Z,99994.00
2023-09-18T14:01:57.427Z,99994.87
2023-09-18T14:05:35.636Z,99985.05
2023-09-18T14:09:13.035Z,99980.91
2023-09-18T14:12:51.770Z,99976.08
2023-09-18T14:16:28.361Z,99966.39
2023-09-18T14:20:10.346Z,99963.63
2023-09-18T14:23:43.994Z,99962.79
2023-09-18T14:27:21.657Z,99953.05
2023-09-18T14:30:59.913Z,99948.42
2023-09-18T14:34:37.175Z,99940.86
2023-09-18T14:38:16.410Z,99943.32
2023-09-18T14:41:52.945Z,99938.33
2023-09-18T14:45:31.151Z,99924.84
2023-09-18T14:49:08.652Z,99924.93
2023-09-18T14:52:47.436Z,99917.46
2023-09-18T14:56:23.798Z,99914.73
2023-09-18T15:00:07.918Z,99910.60
2023-09-18T15:03:41.618Z,99907.81
2023-09-18T15:07:17.073Z,99905.25
2023-09-18T15:10:54.939Z,99902.50
2023-09-18T15:14:33.496Z,99899.62
2023-09-18T15:18:10.597Z,99899.81
2023-09-18T15:21:48.771Z,99899.66
2023-09-18T15:25:25.750Z,99901.68
2023-09-18T15:29:04.796Z,99900.24
2023-09-18T15:32:51.906Z,99904.52
2023-09-18T15:36:19.194Z,99901.75
2023-09-18T15:39:57.033Z,99898.94
2023-09-18T15:43:35.533Z,99895.75
2023-09-18T15:47:12.432Z,99886.31
2023-09-18T15:50:50.356Z,99879.00
2023-09-18T15:54:28.010Z,99882.23
2023-09-18T15:58:05.906Z,99882.23
2023-09-18T16:01:44.420Z,99881.09
2023-09-18T16:05:27.095Z,99879.51
2023-09-18T16:09:01.419Z,99886.89
2023-09-18T16:12:37.491Z,99883.27
2023-09-18T16:16:15.386Z,99876.31
2023-09-18T16:19:53.020Z,99874.90
2023-09-18T16:23:31.021Z,99873.84
2023-09-18T16:27:08.871Z,99867.80
2023-09-18T16:30:47.249Z,99872.73
2023-09-18T16:34:43.432Z,99869.13
2023-09-18T16:38:43.460Z,99869.17
2023-09-18T16:41:52.156Z,99868.67
2023-09-18T16:45:54.984Z,99866.77
2023-09-18T16:50:12.889Z,99868.54
2023-09-18T16:53:28.238Z,99866.66
2023-09-18T16:57:05.668Z,99870.85
2023-09-18T17:00:43.206Z,99866.48
2023-09-18T17:04:21.215Z,99867.20
2023-09-18T17:07:58.920Z,99864.84
2023-09-18T17:11:37.076Z,99863.33
2023-09-18T17:15:15.851Z,99860.25
2023-09-18T17:18:58.191Z,99864.58
2023-09-18T17:22:36.432Z,99863.66
2023-09-18T17:26:12.612Z,99864.08
2023-09-18T17:29:52.598Z,99864.69
2023-09-18T17:33:23.207Z,99861.71
2023-09-18T17:37:01.155Z,99867.39
2023-09-18T17:40:43.910Z,99872.48
2023-09-18T17:44:17.501Z,99871.70
2023-09-18T17:47:54.268Z,99871.56
2023-09-18T17:51:35.380Z,99878.06
2023-09-18T17:55:10.098Z,99880.44
2023-09-18T17:58:50.807Z,99875.73
2023-09-18T18:02:25.450Z,99873.64
2023-09-18T18:06:03.691Z,99875.15
2023-09-18T18:09:41.463Z,99871.52
2023-09-18T18:13:18.529Z,99870.32
2023-09-18T18:16:57.945Z,99869.18
2023-09-18T18:20:34.084Z,99863.44
2023-09-18T18:24:12.214Z,99864.32
2023-09-18T18:27:49.755Z,99862.31
2023-09-18T18:31:28.425Z,99861.14
2023-09-18T18:35:05.869Z,99859.87
2023-09-18T18:38:43.207Z,99857.80
2023-09-18T18:42:20.973Z,99854.66
2023-09-18T18:45:58.607Z,99850.05
2023-09-18T18:49:36.177Z,99842.27
2023-09-18T18:53:13.980Z,99835.96
2023-09-18T18:56:51.664Z,99835.69
2023-09-18T19:00:30.567Z,99831.53
2023-09-18T19:04:07.564Z,99828.13
2023-09-18T19:07:45.311Z,99828.62
2023-09-18T19:11:23.325Z,99826.77
2023-09-18T19:15:02.571Z,99824.50
2023-09-18T19:18:41.666Z,99824.56
2023-09-18T19:22:17.680Z,99820.11
2023-09-18T19:25:57.132Z,99817.86
2023-09-18T19:29:33.804Z,99814.49
2023-09-18T19:33:11.807Z,99811.83
2023-09-18T19:37:02.687Z,99806.41
2023-09-18T19:40:24.855Z,99805.82
2023-09-18T19:44:03.570Z,99803.83
2023-09-18T19:47:41.213Z,99805.00
2023-09-18T19:51:18.685Z,99802.25
2023-09-18T19:54:55.981Z,99799.83
2023-09-18T19:58:34.733Z,99791.68
2023-09-18T20:02:17.880Z,99787.93
2023-09-18T20:05:49.169Z,99781.15
2023-09-18T20:09:28.665Z,99778.41
2023-09-18T20:13:04.898Z,99779.82
2023-09-18T20:16:49.887Z,99782.09
2023-09-18T20:20:20.736Z,99776.59
2023-09-18T20:23:58.050Z,99767.74
2023-09-18T20:27:40.643Z,99765.42
2023-09-18T20:31:13.670Z,99768.30
2023-09-18T20:34:51.238Z,99766.77
2023-09-18T20:38:29.615Z,99763.55
2023-09-18T20:42:07.064Z,99765.38
2023-09-18T20:45:44.711Z,99771.20
2023-09-18T20:49:22.376Z,99768.04
2023-09-18T20:53:00.376Z,99764.13
2023-09-18T20:56:41.265Z,99762.33
2023-09-18T21:00:18.370Z,99760.69
2023-09-18T21:03:54.031Z,99759.52
2023-09-18T21:07:31.036Z,99761.52
2023-09-18T21:11:09.205Z,99760.71
2023-09-18T21:14:46.710Z,99761.88
2023-09-18T21:18:24.486Z,99761.73
2023-09-18T21:22:02.218Z,99768.96
2023-09-18T21:25:40.918Z,99768.04
2023-09-18T21:29:18.088Z,99771.94
2023-09-18T21:32:56.215Z,99775.08
2023-09-18T21:36:35.347Z,99779.34
2023-09-18T21:40:13.512Z,99778.83
2023-09-18T21:43:49.166Z,99787.83
2023-09-18T21:47:26.291Z,99786.17
2023-09-18T21:51:05.301Z,99784.77
2023-09-18T21:54:42.014Z,99792.77
2023-09-18T21:58:19.772Z,99790.64
2023-09-18T22:01:57.573Z,99793.55
2023-09-18T22:05:40.406Z,99796.94
2023-09-18T22:09:13.020Z,99791.62
2023-09-18T22:12:51.215Z,99794.41
2023-09-18T22:16:28.825Z,99797.77
2023-09-18T22:20:06.976Z,99804.73
2023-09-18T22:23:43.940Z,99808.77
2023-09-18T22:27:21.811Z,99807.48
2023-09-18T22:30:59.667Z,99805.96
2023-09-18T22:34:39.166Z,99812.64
2023-09-18T22:38:20.046Z,99816.19
2023-09-18T22:41:52.737Z,99817.10
2023-09-18T22:46:16.005Z,99820.90
2023-09-18T22:50:13.641Z,99823.05
2023-09-18T22:53:27.424Z,99817.77
2023-09-18T22:57:05.225Z,99813.14
2023-09-18T23:00:43.076Z,99808.45
2023-09-18T23:04:20.773Z,99809.02
2023-09-18T23:08:02.087Z,99800.94
2023-09-18T23:11:38.909Z,99805.64
2023-09-18T23:15:17.297Z,99808.31
2023-09-18T23:18:52.272Z,99808.54
2023-09-18T23:22:30.510Z,99819.59
2023-09-18T23:26:09.831Z,99814.36
2023-09-18T23:29:44.973Z,99818.10
2023-09-18T23:33:23.908Z,99816.52
2023-09-18T23:37:00.382Z,99818.25
2023-09-18T23:40:41.281Z,99815.52
2023-09-18T23:44:18.875Z,99812.91
2023-09-18T23:47:53.841Z,99791.26
2023-09-18T23:51:32.734Z,99777.46
2023-09-18T23:55:11.289Z,99767.98
2023-09-18T23:58:48.588Z,99786.81
